Time;durP1;ratioP1;P1;durP2;ratioP2;P2;SDS_P1;SDS_P2;PMS_P1;PMS_P2;Temp;Humidity;BMP_temperature;BMP_pressure;BME280_temperature;BME280_humidity;BME280_pressure;Samples;Min_cycle;Max_cycle;Signal;HPM_P1;HPM_P2
2023/09/05 00:00:19;;;;;;;1.67;0.80;;;;;;;;;;5094921;28;20086;-64
2023/09/05 00:02:48;;;;;;;1.93;1.43;;;;;;;;;;5095216;28;20111;-65
2023/09/05 00:05:17;;;;;;;1.90;1.17;;;;;;;;;;5091286;28;20467;-65
2023/09/05 00:07:43;;;;;;;3.70;1.47;;;;;;;;;;5089947;28;20390;-65
2023/09/05 00:10:11;;;;;;;3.13;1.50;;;;;;;;;;5089866;28;20016;-64
2023/09/05 00:12:40;;;;;;;1.03;0.90;;;;;;;;;;5089675;28;20024;-65
2023/09/05 00:15:08;;;;;;;1.27;1.00;;;;;;;;;;5093045;28;20054;-66
2023/09/05 00:17:36;;;;;;;0.93;0.70;;;;;;;;;;5095100;28;20035;-65
2023/09/05 00:20:03;;;;;;;2.40;1.60;;;;;;;;;;5095080;28;20024;-65
2023/09/05 00:22:29;;;;;;;1.30;1.00;;;;;;;;;;5094885;28;20095;-65
2023/09/05 00:24:56;;;;;;;1.90;0.93;;;;;;;;;;5094676;28;20116;-65
2023/09/05 00:27:23;;;;;;;2.17;1.20;;;;;;;;;;5091069;28;20506;-65
2023/09/05 00:29:49;;;;;;;13.90;1.30;;;;;;;;;;5089218;28;20382;-65
2023/09/05 00:32:18;;;;;;;2.00;1.37;;;;;;;;;;5089529;28;20470;-65
2023/09/05 00:34:47;;;;;;;1.60;1.10;;;;;;;;;;5089382;28;20027;-65
2023/09/05 00:37:22;;;;;;;7.50;1.53;;;;;;;;;;5092519;28;20434;-65
2023/09/05 00:39:49;;;;;;;2.53;1.38;;;;;;;;;;5094575;28;20530;-65
2023/09/05 00:42:15;;;;;;;5.33;2.07;;;;;;;;;;5092060;28;20024;-65
2023/09/05 00:44:43;;;;;;;2.67;1.70;;;;;;;;;;5073807;28;20105;-64
2023/09/05 00:47:13;;;;;;;2.23;1.40;;;;;;;;;;5074336;28;20470;-64
2023/09/05 00:49:47;;;;;;;2.80;1.40;;;;;;;;;;5070550;28;20866;-64
2023/09/05 00:52:14;;;;;;;2.30;1.27;;;;;;;;;;5069065;28;20035;-64
2023/09/05 00:54:41;;;;;;;1.93;1.20;;;;;;;;;;5050729;28;20028;-65
2023/09/05 00:57:09;;;;;;;3.33;1.33;;;;;;;;;;5069007;28;20025;-64
2023/09/05 00:59:35;;;;;;;1.53;0.87;;;;;;;;;;5072446;28;20025;-64
2023/09/05 01:02:02;;;;;;;3.33;1.63;;;;;;;;;;5073521;28;20035;-64
2023/09/05 01:04:32;;;;;;;2.43;1.03;;;;;;;;;;5073958;28;20021;-64
2023/09/05 01:07:05;;;;;;;2.67;1.60;;;;;;;;;;5073884;28;20033;-64
2023/09/05 01:09:40;;;;;;;3.40;1.47;;;;;;;;;;5072184;28;20478;-64
2023/09/05 01:12:08;;;;;;;2.40;1.30;;;;;;;;;;5069195;28;20109;-64
2023/09/05 01:14:35;;;;;;;1.27;1.10;;;;;;;;;;5068150;28;20031;-65
2023/09/05 01:17:01;;;;;;;2.33;1.20;;;;;;;;;;5068538;28;20031;-65
2023/09/05 01:19:31;;;;;;;1.83;1.30;;;;;;;;;;5068414;28;20101;-65
2023/09/05 01:21:57;;;;;;;1.23;0.97;;;;;;;;;;5071684;28;20028;-65
2023/09/05 01:24:24;;;;;;;2.37;1.40;;;;;;;;;;5072818;28;20082;-65
2023/09/05 01:26:52;;;;;;;2.73;1.83;;;;;;;;;;5073395;28;20108;-64
2023/09/05 01:29:29;;;;;;;5.93;1.60;;;;;;;;;;5055381;28;20043;-65
2023/09/05 01:32:00;;;;;;;2.50;1.67;;;;;;;;;;5073358;28;20016;-64
2023/09/05 01:34:26;;;;;;;1.40;1.13;;;;;;;;;;5067739;28;20032;-65
2023/09/05 01:36:53;;;;;;;3.40;2.00;;;;;;;;;;5068148;28;20024;-64
2023/09/05 01:39:20;;;;;;;11.33;4.50;;;;;;;;;;5068377;28;20367;-64
2023/09/05 01:41:47;;;;;;;4.70;2.63;;;;;;;;;;5067810;28;20387;-65
2023/09/05 01:44:14;;;;;;;3.07;1.87;;;;;;;;;;5072117;28;20058;-64
2023/09/05 01:46:41;;;;;;;3.90;2.27;;;;;;;;;;5072419;28;20124;-64
2023/09/05 01:49:08;;;;;;;3.70;2.23;;;;;;;;;;5054944;28;20032;-64
2023/09/05 01:51:34;;;;;;;2.97;2.00;;;;;;;;;;5072850;28;20035;-65
2023/09/05 01:54:01;;;;;;;4.13;2.00;;;;;;;;;;5072987;28;20119;-64
2023/09/05 01:56:28;;;;;;;3.30;1.83;;;;;;;;;;5067661;28;20528;-64
2023/09/05 01:58:57;;;;;;;3.27;1.73;;;;;;;;;;5067867;28;20259;-64
2023/09/05 02:01:24;;;;;;;1.13;1.00;;;;;;;;;;5067745;28;20054;-64
2023/09/05 02:03:51;;;;;;;2.77;1.83;;;;;;;;;;5067700;28;20540;-64
2023/09/05 02:06:17;;;;;;;4.13;1.90;;;;;;;;;;5070931;28;20502;-65
2023/09/05 02:08:46;;;;;;;3.00;1.93;;;;;;;;;;5054776;28;20035;-64
2023/09/05 02:11:14;;;;;;;1.70;1.30;;;;;;;;;;5072663;28;20111;-64
2023/09/05 02:13:40;;;;;;;1.10;1.00;;;;;;;;;;5072740;28;20497;-64
2023/09/05 02:16:07;;;;;;;1.70;1.13;;;;;;;;;;5072356;28;20163;-65
2023/09/05 02:18:34;;;;;;;3.70;1.70;;;;;;;;;;5068178;28;20028;-64
2023/09/05 02:21:02;;;;;;;1.83;1.33;;;;;;;;;;5066886;28;20479;-64
2023/09/05 02:23:29;;;;;;;1.53;1.20;;;;;;;;;;5067503;28;20031;-65
2023/09/05 02:25:58;;;;;;;2.53;1.37;;;;;;;;;;5067199;28;20071;-64
2023/09/05 02:28:25;;;;;;;2.13;1.47;;;;;;;;;;5071273;28;20059;-64
2023/09/05 02:30:52;;;;;;;5.53;1.13;;;;;;;;;;5072650;28;20032;-64
2023/09/05 02:33:19;;;;;;;3.10;1.50;;;;;;;;;;5072511;28;20107;-64
2023/09/05 02:35:46;;;;;;;6.80;1.40;;;;;;;;;;5071657;28;20484;-65
2023/09/05 02:38:15;;;;;;;2.37;1.47;;;;;;;;;;5072479;28;20474;-64
2023/09/05 02:40:47;;;;;;;1.93;1.37;;;;;;;;;;5067875;28;20101;-65
2023/09/05 02:43:14;;;;;;;3.00;1.80;;;;;;;;;;5067420;28;20021;-64
2023/09/05 02:45:41;;;;;;;1.93;0.80;;;;;;;;;;5066796;28;20037;-64
2023/09/05 02:48:08;;;;;;;4.10;1.40;;;;;;;;;;5066955;28;20572;-64
2023/09/05 02:50:35;;;;;;;11.43;1.53;;;;;;;;;;5071084;28;20035;-64
2023/09/05 02:53:01;;;;;;;1.70;1.13;;;;;;;;;;5072232;28;20025;-64
2023/09/05 02:55:28;;;;;;;8.27;2.13;;;;;;;;;;5072295;28;20027;-64
2023/09/05 02:57:55;;;;;;;1.20;1.07;;;;;;;;;;5071741;28;20041;-64
2023/09/05 03:00:22;;;;;;;2.93;1.40;;;;;;;;;;5071688;28;20025;-64
2023/09/05 03:02:49;;;;;;;2.60;1.37;;;;;;;;;;5067767;28;20032;-64
2023/09/05 03:05:16;;;;;;;2.43;1.50;;;;;;;;;;5066818;28;20432;-65
2023/09/05 03:07:43;;;;;;;5.27;1.93;;;;;;;;;;5067235;28;20028;-65
2023/09/05 03:10:09;;;;;;;3.03;2.00;;;;;;;;;;5066926;28;20406;-65
2023/09/05 03:12:36;;;;;;;1.77;1.40;;;;;;;;;;5055099;28;20048;-64
2023/09/05 03:15:03;;;;;;;1.60;1.27;;;;;;;;;;5071910;28;20021;-65
2023/09/05 03:17:29;;;;;;;3.80;2.20;;;;;;;;;;5071971;28;20025;-64
2023/09/05 03:19:56;;;;;;;2.77;1.87;;;;;;;;;;5071518;28;20078;-65
2023/09/05 03:22:23;;;;;;;6.87;1.73;;;;;;;;;;5071656;28;20051;-64
2023/09/05 03:24:49;;;;;;;3.40;1.97;;;;;;;;;;5067846;28;20099;-65
2023/09/05 03:27:16;;;;;;;2.80;1.43;;;;;;;;;;5048872;28;20379;-65
2023/09/05 03:29:43;;;;;;;1.87;1.43;;;;;;;;;;5066935;28;20462;-64
2023/09/05 03:32:10;;;;;;;2.87;1.60;;;;;;;;;;5067893;28;20029;-64
2023/09/05 03:34:36;;;;;;;2.67;1.67;;;;;;;;;;5073625;28;20104;-64
2023/09/05 03:37:03;;;;;;;2.67;1.77;;;;;;;;;;5075472;28;20016;-64
2023/09/05 03:39:29;;;;;;;3.97;1.03;;;;;;;;;;5075258;28;20111;-64
2023/09/05 03:41:56;;;;;;;1.70;1.20;;;;;;;;;;5075551;28;20024;-64
2023/09/05 03:44:23;;;;;;;1.30;1.00;;;;;;;;;;5075539;28;20431;-64
2023/09/05 03:46:50;;;;;;;3.03;1.27;;;;;;;;;;5071733;28;20051;-64
2023/09/05 03:49:16;;;;;;;11.43;1.63;;;;;;;;;;5070084;28;20504;-64
2023/09/05 03:51:43;;;;;;;7.17;3.17;;;;;;;;;;5069501;28;20032;-64
2023/09/05 03:54:12;;;;;;;2.37;1.87;;;;;;;;;;5052312;28;20052;-64
2023/09/05 03:56:39;;;;;;;1.87;1.50;;;;;;;;;;5073096;28;20116;-64
2023/09/05 03:59:05;;;;;;;1.40;1.07;;;;;;;;;;5074815;28;20021;-65
2023/09/05 04:01:32;;;;;;;3.40;1.87;;;;;;;;;;5075085;28;20020;-64
2023/09/05 04:03:59;;;;;;;1.53;1.13;;;;;;;;;;5075073;28;20086;-64
2023/09/05 04:06:25;;;;;;;3.40;1.97;;;;;;;;;;5074548;28;20069;-64
2023/09/05 04:08:52;;;;;;;4.40;1.53;;;;;;;;;;5071357;28;20024;-64
2023/09/05 04:11:19;;;;;;;2.03;1.40;;;;;;;;;;5069737;28;20031;-64
2023/09/05 04:13:45;;;;;;;3.27;2.13;;;;;;;;;;5069723;28;20467;-65
2023/09/05 04:16:12;;;;;;;4.80;1.97;;;;;;;;;;5069793;28;20020;-64
2023/09/05 04:18:39;;;;;;;0.80;0.70;;;;;;;;;;5054757;28;20025;-65
2023/09/05 04:21:05;;;;;;;3.33;1.50;;;;;;;;;;5074350;28;20017;-65
2023/09/05 04:23:32;;;;;;;2.90;1.50;;;;;;;;;;5074417;28;20095;-64
2023/09/05 04:26:02;;;;;;;3.00;1.47;;;;;;;;;;5074081;28;20060;-64
2023/09/05 04:28:30;;;;;;;12.80;1.43;;;;;;;;;;5074689;28;20016;-64
2023/09/05 04:30:57;;;;;;;3.10;1.57;;;;;;;;;;5071305;28;20056;-64
2023/09/05 04:33:25;;;;;;;2.77;1.33;;;;;;;;;;5069503;28;20025;-64
2023/09/05 04:35:52;;;;;;;2.47;1.20;;;;;;;;;;5050773;28;20386;-64
2023/09/05 04:38:19;;;;;;;2.00;1.60;;;;;;;;;;5069478;28;20085;-64
2023/09/05 04:40:46;;;;;;;6.77;1.73;;;;;;;;;;5072008;28;20104;-64
2023/09/05 04:43:13;;;;;;;2.23;1.47;;;;;;;;;;5074250;28;20029;-64
2023/09/05 04:45:39;;;;;;;2.30;1.30;;;;;;;;;;5074228;28;20056;-64
2023/09/05 04:48:07;;;;;;;4.77;1.37;;;;;;;;;;5073931;28;20467;-64
2023/09/05 04:50:33;;;;;;;1.13;0.90;;;;;;;;;;5073689;28;20024;-64
2023/09/05 04:53:00;;;;;;;1.10;0.90;;;;;;;;;;5070989;28;20021;-64
2023/09/05 04:55:27;;;;;;;15.27;1.30;;;;;;;;;;5069268;28;20033;-64
2023/09/05 04:57:53;;;;;;;1.33;0.77;;;;;;;;;;5069036;28;20530;-64
2023/09/05 05:00:23;;;;;;;1.00;0.90;;;;;;;;;;5068403;28;20507;-64
2023/09/05 05:02:50;;;;;;;2.03;1.20;;;;;;;;;;5071788;28;20423;-63
2023/09/05 05:05:17;;;;;;;1.30;1.03;;;;;;;;;;5073316;28;20055;-65
2023/09/05 05:07:44;;;;;;;2.07;1.40;;;;;;;;;;5074051;28;20024;-65
2023/09/05 05:10:12;;;;;;;1.60;1.17;;;;;;;;;;5073938;28;20040;-64
2023/09/05 05:12:39;;;;;;;1.67;1.10;;;;;;;;;;5073443;28;20099;-64
2023/09/05 05:15:06;;;;;;;1.83;1.17;;;;;;;;;;5070636;28;20028;-64
2023/09/05 05:17:33;;;;;;;2.13;1.60;;;;;;;;;;5068495;28;20352;-64
2023/09/05 05:20:01;;;;;;;5.93;1.13;;;;;;;;;;5068197;28;20421;-64
2023/09/05 05:22:27;;;;;;;1.77;1.13;;;;;;;;;;5068534;28;20375;-64
2023/09/05 05:24:54;;;;;;;1.60;1.13;;;;;;;;;;5070631;28;20059;-64
2023/09/05 05:27:21;;;;;;;1.53;1.10;;;;;;;;;;5072953;28;20031;-64
2023/09/05 05:29:47;;;;;;;2.10;1.50;;;;;;;;;;5073367;28;20471;-65
2023/09/05 05:32:14;;;;;;;1.70;1.43;;;;;;;;;;5073309;28;20021;-64
2023/09/05 05:34:41;;;;;;;1.73;1.30;;;;;;;;;;5073027;28;20467;-64
2023/09/05 05:37:07;;;;;;;1.77;1.10;;;;;;;;;;5069864;28;20025;-64
2023/09/05 05:39:34;;;;;;;1.23;0.87;;;;;;;;;;5068324;28;20395;-64
2023/09/05 05:42:01;;;;;;;1.50;1.13;;;;;;;;;;5068273;28;20379;-64
2023/09/05 05:44:27;;;;;;;1.30;0.77;;;;;;;;;;5068124;28;20040;-63
2023/09/05 05:46:56;;;;;;;8.23;1.80;;;;;;;;;;5070346;28;20025;-64
2023/09/05 05:49:25;;;;;;;0.83;0.60;;;;;;;;;;5072742;28;20033;-64
2023/09/05 05:51:52;;;;;;;1.17;0.87;;;;;;;;;;5054104;28;20028;-64
2023/09/05 05:54:18;;;;;;;9.07;1.03;;;;;;;;;;5072529;28;20111;-64
2023/09/05 05:56:45;;;;;;;1.80;1.13;;;;;;;;;;5072654;28;20031;-64
2023/09/05 05:59:12;;;;;;;1.43;0.90;;;;;;;;;;5070100;28;20090;-64
2023/09/05 06:01:38;;;;;;;3.80;1.63;;;;;;;;;;5067511;28;20031;-64
2023/09/05 06:04:05;;;;;;;1.37;1.00;;;;;;;;;;5067869;28;20028;-64
2023/09/05 06:06:32;;;;;;;1.73;1.20;;;;;;;;;;5067448;28;20028;-63
2023/09/05 06:08:58;;;;;;;2.80;1.53;;;;;;;;;;5069870;28;20028;-63
2023/09/05 06:11:25;;;;;;;4.13;1.30;;;;;;;;;;5072889;28;20032;-63
2023/09/05 06:13:52;;;;;;;2.83;1.33;;;;;;;;;;5054283;28;20478;-63
2023/09/05 06:16:22;;;;;;;1.87;1.20;;;;;;;;;;5072621;28;20025;-63
2023/09/05 06:18:49;;;;;;;1.27;1.00;;;;;;;;;;5072644;28;20431;-64
2023/09/05 06:21:15;;;;;;;1.43;0.77;;;;;;;;;;5069408;28;20099;-64
2023/09/05 06:23:42;;;;;;;11.57;1.80;;;;;;;;;;5067385;28;20020;-64
2023/09/05 06:26:09;;;;;;;1.90;1.27;;;;;;;;;;5067114;28;20783;-63
2023/09/05 06:28:36;;;;;;;1.37;1.00;;;;;;;;;;5049470;28;20032;-64
2023/09/05 06:31:02;;;;;;;3.43;0.83;;;;;;;;;;5069632;28;20498;-64
2023/09/05 06:33:29;;;;;;;1.23;0.90;;;;;;;;;;5072545;28;20074;-64
2023/09/05 06:35:56;;;;;;;1.60;1.03;;;;;;;;;;5071912;28;20027;-64
2023/09/05 06:38:23;;;;;;;1.60;1.03;;;;;;;;;;5072125;28;20032;-63
2023/09/05 06:40:50;;;;;;;1.07;0.87;;;;;;;;;;5072396;28;20024;-64
2023/09/05 06:43:16;;;;;;;2.17;1.27;;;;;;;;;;5069637;28;20036;-63
2023/09/05 06:45:43;;;;;;;0.87;0.73;;;;;;;;;;5067222;28;20037;-64
2023/09/05 06:48:10;;;;;;;0.90;0.70;;;;;;;;;;5066873;28;20122;-64
2023/09/05 06:50:36;;;;;;;1.27;0.97;;;;;;;;;;5067047;28;20029;-63
2023/09/05 06:53:03;;;;;;;1.73;1.10;;;;;;;;;;5069106;28;20021;-63
2023/09/05 06:55:34;;;;;;;1.13;1.03;;;;;;;;;;5072232;28;20158;-63
2023/09/05 06:58:01;;;;;;;1.60;1.20;;;;;;;;;;5072170;28;20032;-65
2023/09/05 07:00:28;;;;;;;2.90;1.50;;;;;;;;;;5071631;28;20429;-64
2023/09/05 07:02:54;;;;;;;0.97;0.83;;;;;;;;;;5072273;28;20035;-63
2023/09/05 07:05:21;;;;;;;5.20;1.30;;;;;;;;;;5069106;28;20036;-63
2023/09/05 07:07:48;;;;;;;1.03;0.87;;;;;;;;;;5069406;28;20025;-64
2023/09/05 07:10:15;;;;;;;1.53;1.23;;;;;;;;;;5070836;28;20028;-63
2023/09/05 07:12:41;;;;;;;2.63;1.03;;;;;;;;;;5071182;28;20036;-63
2023/09/05 07:15:08;;;;;;;1.13;0.90;;;;;;;;;;5054975;28;20419;-63
2023/09/05 07:17:35;;;;;;;3.00;1.40;;;;;;;;;;5075814;28;20498;-63
2023/09/05 07:20:02;;;;;;;3.73;1.30;;;;;;;;;;5075710;28;20441;-64
2023/09/05 07:22:28;;;;;;;1.93;1.07;;;;;;;;;;5075598;28;20033;-63
2023/09/05 07:24:55;;;;;;;2.17;1.00;;;;;;;;;;5075755;28;20445;-63
2023/09/05 07:27:22;;;;;;;4.43;1.17;;;;;;;;;;5073772;28;20028;-64
2023/09/05 07:29:48;;;;;;;1.53;0.83;;;;;;;;;;5070886;28;20090;-63
2023/09/05 07:32:15;;;;;;;1.13;0.83;;;;;;;;;;5070539;28;20024;-63
2023/09/05 07:34:42;;;;;;;2.30;1.17;;;;;;;;;;5070167;28;20025;-64
2023/09/05 07:37:08;;;;;;;1.37;1.10;;;;;;;;;;5071705;28;20031;-64
2023/09/05 07:39:35;;;;;;;2.63;1.67;;;;;;;;;;5075693;28;20070;-63
2023/09/05 07:42:02;;;;;;;1.33;0.80;;;;;;;;;;5075662;28;20021;-63
2023/09/05 07:44:29;;;;;;;0.90;0.80;;;;;;;;;;5075577;28;20056;-64
2023/09/05 07:46:55;;;;;;;16.03;0.87;;;;;;;;;;5075028;28;20497;-63
2023/09/05 07:49:22;;;;;;;9.63;1.67;;;;;;;;;;5073384;28;20024;-63
2023/09/05 07:51:49;;;;;;;2.03;1.47;;;;;;;;;;5069773;28;20100;-64
2023/09/05 07:54:17;;;;;;;1.90;1.17;;;;;;;;;;5070331;28;20012;-63
2023/09/05 07:56:44;;;;;;;1.00;0.80;;;;;;;;;;5069730;28;20120;-64
2023/09/05 07:59:10;;;;;;;1.57;1.13;;;;;;;;;;5071723;28;20036;-63
2023/09/05 08:01:37;;;;;;;0.87;0.70;;;;;;;;;;5075242;28;20029;-63
2023/09/05 08:04:04;;;;;;;1.47;1.20;;;;;;;;;;5075063;28;20073;-64
2023/09/05 08:06:31;;;;;;;1.10;0.80;;;;;;;;;;5074605;28;20040;-63
2023/09/05 08:08:58;;;;;;;4.93;1.13;;;;;;;;;;5074960;28;20021;-64
2023/09/05 08:11:24;;;;;;;1.60;1.23;;;;;;;;;;5073082;28;20103;-64
2023/09/05 08:13:51;;;;;;;1.67;1.10;;;;;;;;;;5069677;28;20074;-63
2023/09/05 08:16:17;;;;;;;2.30;1.53;;;;;;;;;;5069868;28;20036;-64
2023/09/05 08:18:44;;;;;;;1.13;0.80;;;;;;;;;;5069389;28;20025;-63
2023/09/05 08:21:11;;;;;;;1.57;1.17;;;;;;;;;;5070667;28;20386;-64
2023/09/05 08:23:37;;;;;;;1.83;1.37;;;;;;;;;;5074410;28;20035;-63
2023/09/05 08:26:09;;;;;;;1.73;1.30;;;;;;;;;;5074837;28;20036;-63
2023/09/05 08:28:36;;;;;;;2.03;1.43;;;;;;;;;;5074676;28;20098;-63
2023/09/05 08:31:03;;;;;;;0.80;0.77;;;;;;;;;;5074807;28;20024;-63
2023/09/05 08:33:29;;;;;;;4.00;1.00;;;;;;;;;;5072393;28;20048;-64
2023/09/05 08:35:56;;;;;;;1.63;0.97;;;;;;;;;;5069515;28;20536;-63
2023/09/05 08:38:23;;;;;;;1.33;1.03;;;;;;;;;;5069329;28;20024;-63
2023/09/05 08:40:49;;;;;;;1.97;1.40;;;;;;;;;;5069280;28;20029;-63
2023/09/05 08:43:17;;;;;;;1.27;1.03;;;;;;;;;;5070631;28;20027;-64
2023/09/05 08:45:46;;;;;;;2.77;1.43;;;;;;;;;;5073978;28;20379;-63
2023/09/05 08:48:13;;;;;;;2.13;1.20;;;;;;;;;;5074199;28;20028;-63
2023/09/05 08:50:41;;;;;;;1.30;1.03;;;;;;;;;;5074361;28;20063;-63
2023/09/05 08:53:12;;;;;;;4.60;1.70;;;;;;;;;;5074189;28;20074;-63
2023/09/05 08:55:45;;;;;;;1.60;1.20;;;;;;;;;;5071990;28;20043;-63
2023/09/05 08:58:14;;;;;;;1.83;0.90;;;;;;;;;;5068874;28;20039;-63
2023/09/05 09:00:41;;;;;;;1.47;1.00;;;;;;;;;;5068965;28;20020;-63
2023/09/05 09:03:07;;;;;;;8.33;1.87;;;;;;;;;;5069003;28;20389;-63
2023/09/05 09:05:36;;;;;;;1.40;1.13;;;;;;;;;;5069637;28;20495;-63
2023/09/05 09:08:03;;;;;;;1.43;0.97;;;;;;;;;;5073851;28;20470;-63
2023/09/05 09:10:29;;;;;;;2.10;1.53;;;;;;;;;;5073417;28;20027;-64
2023/09/05 09:13:13;;;;;;;1.53;1.20;;;;;;;;;;5073802;28;20078;-63
2023/09/05 09:15:44;;;;;;;2.00;1.37;;;;;;;;;;5072773;28;20028;-63
2023/09/05 09:18:14;;;;;;;2.97;1.23;;;;;;;;;;5071055;28;20438;-63
2023/09/05 09:20:44;;;;;;;1.60;1.10;;;;;;;;;;5068534;28;20143;-64
2023/09/05 09:23:11;;;;;;;2.53;1.63;;;;;;;;;;5068596;28;20383;-63
2023/09/05 09:25:47;;;;;;;4.60;1.43;;;;;;;;;;5068097;28;20036;-63
2023/09/05 09:28:21;;;;;;;1.80;1.37;;;;;;;;;;5053169;28;20047;-63
2023/09/05 09:30:54;;;;;;;4.65;1.52;;;;;;;;;;5072816;28;20485;-63
2023/09/05 09:33:22;;;;;;;5.17;1.70;;;;;;;;;;5073328;28;20027;-63
2023/09/05 09:36:01;;;;;;;1.30;1.03;;;;;;;;;;5073240;28;20029;-63
2023/09/05 09:38:28;;;;;;;3.10;1.53;;;;;;;;;;5072876;28;20032;-63
2023/09/05 09:40:55;;;;;;;3.43;1.33;;;;;;;;;;5069040;28;20024;-63
2023/09/05 09:43:22;;;;;;;2.60;1.20;;;;;;;;;;5050149;28;20058;-63
2023/09/05 09:45:49;;;;;;;1.27;0.80;;;;;;;;;;5068047;28;20033;-63
2023/09/05 09:48:16;;;;;;;2.03;1.20;;;;;;;;;;5067874;28;20059;-63
2023/09/05 09:50:43;;;;;;;1.87;1.20;;;;;;;;;;5052928;28;20086;-63
2023/09/05 09:53:11;;;;;;;1.77;1.30;;;;;;;;;;5073063;28;20099;-63
2023/09/05 09:55:41;;;;;;;1.43;1.20;;;;;;;;;;5073175;28;20046;-63
2023/09/05 09:58:10;;;;;;;1.77;1.27;;;;;;;;;;5054756;28;20035;-63
2023/09/05 10:00:40;;;;;;;2.77;1.30;;;;;;;;;;5054617;28;20025;-63
2023/09/05 10:03:08;;;;;;;5.97;1.40;;;;;;;;;;5068216;28;20099;-63
2023/09/05 10:05:35;;;;;;;6.67;1.37;;;;;;;;;;5067581;28;20025;-62
2023/09/05 10:08:02;;;;;;;4.20;1.30;;;;;;;;;;5049783;28;20424;-63
2023/09/05 10:10:29;;;;;;;0.87;0.80;;;;;;;;;;5067523;28;20028;-63
2023/09/05 10:12:57;;;;;;;4.57;1.87;;;;;;;;;;5071148;28;20017;-63
2023/09/05 10:15:24;;;;;;;5.00;1.47;;;;;;;;;;5072695;28;20052;-63
2023/09/05 10:17:51;;;;;;;2.97;1.97;;;;;;;;;;5072112;28;20024;-63
2023/09/05 10:20:19;;;;;;;1.77;1.20;;;;;;;;;;5072586;28;20028;-63
2023/09/05 10:22:46;;;;;;;3.00;1.40;;;;;;;;;;5072551;28;20029;-63
2023/09/05 10:25:14;;;;;;;1.40;1.00;;;;;;;;;;5067734;28;20536;-63
2023/09/05 10:27:42;;;;;;;0.67;0.67;;;;;;;;;;5067535;28;20097;-63
2023/09/05 10:30:12;;;;;;;6.17;1.67;;;;;;;;;;5067460;28;20024;-63
2023/09/05 10:32:44;;;;;;;1.30;1.10;;;;;;;;;;5066992;28;20074;-63
2023/09/05 10:35:11;;;;;;;2.10;1.07;;;;;;;;;;5071545;28;20533;-64
2023/09/05 10:37:38;;;;;;;3.37;1.80;;;;;;;;;;5072292;28;20498;-63
2023/09/05 10:40:08;;;;;;;5.27;1.17;;;;;;;;;;5072218;28;20033;-63
2023/09/05 10:42:45;;;;;;;6.03;1.77;;;;;;;;;;5072341;28;20487;-63
2023/09/05 10:45:24;;;;;;;4.87;1.77;;;;;;;;;;5072348;28;20021;-63
2023/09/05 10:47:53;;;;;;;5.50;2.10;;;;;;;;;;5067327;28;20065;-63
2023/09/05 10:50:21;;;;;;;1.27;1.00;;;;;;;;;;5067283;28;20057;-63
2023/09/05 10:52:50;;;;;;;1.40;1.03;;;;;;;;;;5067124;28;20547;-63
2023/09/05 10:55:30;;;;;;;2.27;1.27;;;;;;;;;;5066862;28;20588;-63
2023/09/05 10:57:57;;;;;;;1.60;1.13;;;;;;;;;;5072011;28;20089;-63
2023/09/05 11:00:26;;;;;;;1.13;0.97;;;;;;;;;;5053862;28;20139;-63
2023/09/05 11:02:56;;;;;;;9.17;1.50;;;;;;;;;;5072035;28;20020;-63
2023/09/05 11:05:27;;;;;;;4.47;1.37;;;;;;;;;;5071650;28;20387;-63
2023/09/05 11:07:58;;;;;;;2.13;1.50;;;;;;;;;;5071245;28;20020;-63
2023/09/05 11:10:33;;;;;;;2.60;1.20;;;;;;;;;;5066895;28;20036;-63
2023/09/05 11:13:14;;;;;;;3.20;1.50;;;;;;;;;;5066380;28;20162;-63
2023/09/05 11:15:44;;;;;;;2.27;1.57;;;;;;;;;;5066692;28;20028;-63
2023/09/05 11:18:12;;;;;;;4.63;2.27;;;;;;;;;;5068104;28;20036;-63
2023/09/05 11:20:40;;;;;;;2.63;2.00;;;;;;;;;;5072095;28;20025;-63
2023/09/05 11:23:25;;;;;;;1.77;1.17;;;;;;;;;;5071715;28;20107;-63
2023/09/05 11:26:03;;;;;;;3.33;1.95;;;;;;;;;;5071864;28;20036;-63
2023/09/05 11:28:30;;;;;;;1.50;1.33;;;;;;;;;;5053896;28;20063;-63
2023/09/05 11:30:57;;;;;;;6.07;2.13;;;;;;;;;;5068584;28;20375;-63
2023/09/05 11:33:25;;;;;;;1.60;1.27;;;;;;;;;;5066863;28;20096;-64
2023/09/05 11:35:51;;;;;;;1.67;1.33;;;;;;;;;;5066508;28;20027;-63
2023/09/05 11:38:19;;;;;;;4.07;2.23;;;;;;;;;;5066568;28;20347;-63
2023/09/05 11:41:01;;;;;;;2.20;1.63;;;;;;;;;;5069180;28;20078;-63
2023/09/05 11:43:31;;;;;;;2.20;1.50;;;;;;;;;;5071741;28;20027;-63
2023/09/05 11:45:58;;;;;;;2.93;2.10;;;;;;;;;;5071580;28;20028;-63
2023/09/05 11:48:26;;;;;;;4.90;2.40;;;;;;;;;;5070924;28;20025;-64
2023/09/05 11:50:53;;;;;;;1.40;1.17;;;;;;;;;;5071770;28;20025;-63
2023/09/05 11:53:20;;;;;;;2.43;1.83;;;;;;;;;;5069620;28;20494;-63
2023/09/05 11:55:47;;;;;;;2.67;2.07;;;;;;;;;;5070203;28;20024;-63
2023/09/05 11:58:16;;;;;;;3.40;2.27;;;;;;;;;;5070017;28;20111;-64
2023/09/05 12:00:44;;;;;;;3.13;1.97;;;;;;;;;;5049988;28;20035;-63
2023/09/05 12:03:15;;;;;;;3.50;2.43;;;;;;;;;;5053187;28;20083;-63
2023/09/05 12:05:45;;;;;;;5.67;2.47;;;;;;;;;;5054806;28;20024;-63
2023/09/05 12:08:11;;;;;;;3.03;2.03;;;;;;;;;;5055041;28;20021;-63
2023/09/05 12:10:50;;;;;;;2.47;1.70;;;;;;;;;;5056592;28;20044;-63
2023/09/05 12:13:17;;;;;;;3.63;2.20;;;;;;;;;;5074549;28;20028;-63
2023/09/05 12:15:45;;;;;;;5.30;2.60;;;;;;;;;;5070970;28;20420;-63
2023/09/05 12:18:17;;;;;;;2.67;2.17;;;;;;;;;;5069864;28;20056;-63
2023/09/05 12:20:54;;;;;;;5.90;2.47;;;;;;;;;;5069755;28;20013;-64
2023/09/05 12:23:23;;;;;;;4.83;2.60;;;;;;;;;;5069057;28;20099;-63
2023/09/05 12:25:54;;;;;;;4.50;2.50;;;;;;;;;;5073797;28;20060;-63
2023/09/05 12:28:22;;;;;;;3.57;2.93;;;;;;;;;;5074648;28;20031;-63
2023/09/05 12:30:49;;;;;;;3.27;2.30;;;;;;;;;;5074521;28;20028;-63
2023/09/05 12:33:17;;;;;;;12.90;2.57;;;;;;;;;;5074644;28;20021;-63
2023/09/05 12:35:44;;;;;;;15.60;2.60;;;;;;;;;;5074554;28;20020;-63
2023/09/05 12:38:11;;;;;;;3.63;1.90;;;;;;;;;;5051087;28;20024;-63
2023/09/05 12:40:38;;;;;;;2.80;2.10;;;;;;;;;;5069204;28;20055;-63
2023/09/05 12:43:05;;;;;;;4.20;2.70;;;;;;;;;;5069217;28;20082;-64
2023/09/05 12:45:35;;;;;;;3.43;2.63;;;;;;;;;;5069297;28;20131;-64
2023/09/05 12:48:02;;;;;;;2.57;2.20;;;;;;;;;;5073817;28;20029;-63
2023/09/05 12:50:32;;;;;;;2.90;2.30;;;;;;;;;;5074322;28;20025;-64
2023/09/05 12:53:01;;;;;;;4.30;2.50;;;;;;;;;;5074008;28;20049;-63
2023/09/05 12:55:31;;;;;;;2.40;2.00;;;;;;;;;;5074199;28;20033;-63
2023/09/05 12:57:58;;;;;;;4.03;2.67;;;;;;;;;;5073894;28;20036;-63
2023/09/05 13:00:25;;;;;;;2.87;2.17;;;;;;;;;;5069021;28;20382;-64
2023/09/05 13:02:51;;;;;;;6.63;2.63;;;;;;;;;;5068928;28;20146;-64
2023/09/05 13:05:18;;;;;;;3.80;2.40;;;;;;;;;;5068014;28;20925;-63
2023/09/05 13:07:45;;;;;;;3.53;2.70;;;;;;;;;;5068884;28;20028;-63
2023/09/05 13:10:12;;;;;;;2.97;2.37;;;;;;;;;;5073465;28;20109;-63
2023/09/05 13:12:38;;;;;;;3.70;2.20;;;;;;;;;;5073704;28;20031;-63
2023/09/05 13:15:05;;;;;;;3.17;2.03;;;;;;;;;;5073625;28;20036;-63
2023/09/05 13:17:32;;;;;;;7.60;2.03;;;;;;;;;;5073703;28;20031;-63
2023/09/05 13:19:59;;;;;;;3.70;1.97;;;;;;;;;;5073306;28;20476;-63
2023/09/05 13:22:26;;;;;;;4.70;1.70;;;;;;;;;;5068657;28;20035;-64
2023/09/05 13:24:52;;;;;;;3.37;1.93;;;;;;;;;;5068481;28;20020;-63
2023/09/05 13:27:19;;;;;;;2.77;2.13;;;;;;;;;;5068219;28;20090;-63
2023/09/05 13:29:46;;;;;;;2.00;1.70;;;;;;;;;;5068188;28;20556;-63
2023/09/05 13:32:13;;;;;;;3.93;2.37;;;;;;;;;;5054711;28;20036;-64
2023/09/05 13:34:41;;;;;;;2.30;1.80;;;;;;;;;;5072926;28;20024;-64
2023/09/05 13:37:08;;;;;;;1.67;1.40;;;;;;;;;;5073012;28;20482;-63
2023/09/05 13:39:34;;;;;;;5.13;2.00;;;;;;;;;;5073359;28;20025;-64
2023/09/05 13:42:02;;;;;;;1.70;1.30;;;;;;;;;;5073254;28;20024;-63
2023/09/05 13:44:28;;;;;;;2.87;2.27;;;;;;;;;;5068079;28;20111;-64
2023/09/05 13:46:55;;;;;;;7.83;2.97;;;;;;;;;;5067922;28;20036;-64
2023/09/05 13:49:22;;;;;;;5.47;3.40;;;;;;;;;;5067309;28;20032;-64
2023/09/05 13:51:48;;;;;;;6.73;3.97;;;;;;;;;;5067817;28;20104;-64
2023/09/05 13:54:19;;;;;;;5.23;3.57;;;;;;;;;;5072357;28;20021;-64
2023/09/05 13:56:46;;;;;;;5.70;3.90;;;;;;;;;;5055037;28;20033;-64
2023/09/05 13:59:13;;;;;;;7.60;3.00;;;;;;;;;;5073031;28;20566;-64
2023/09/05 14:01:40;;;;;;;5.00;3.83;;;;;;;;;;5072712;28;20475;-64
2023/09/05 14:04:07;;;;;;;13.97;3.70;;;;;;;;;;5072422;28;20021;-64
2023/09/05 14:06:33;;;;;;;5.83;3.40;;;;;;;;;;5067722;28;20044;-64
2023/09/05 14:09:00;;;;;;;3.47;2.60;;;;;;;;;;5067668;28;20111;-65
2023/09/05 14:11:27;;;;;;;4.57;3.23;;;;;;;;;;5067691;28;20498;-64
2023/09/05 14:13:53;;;;;;;9.23;3.67;;;;;;;;;;5067470;28;20037;-63
2023/09/05 14:16:20;;;;;;;2.90;2.10;;;;;;;;;;5053475;28;20502;-64
2023/09/05 14:18:47;;;;;;;21.10;3.33;;;;;;;;;;5072377;28;20468;-64
2023/09/05 14:21:14;;;;;;;8.83;3.40;;;;;;;;;;5072188;28;20042;-64
2023/09/05 14:23:41;;;;;;;3.83;2.47;;;;;;;;;;5072533;28;20090;-64
2023/09/05 14:26:09;;;;;;;6.73;2.60;;;;;;;;;;5072497;28;20039;-64
2023/09/05 14:28:35;;;;;;;5.03;2.63;;;;;;;;;;5067604;28;20379;-64
2023/09/05 14:31:02;;;;;;;3.87;2.53;;;;;;;;;;5067089;28;20029;-64
2023/09/05 14:33:31;;;;;;;15.60;2.70;;;;;;;;;;5067517;28;20028;-64
2023/09/05 14:35:59;;;;;;;7.33;2.30;;;;;;;;;;5067366;28;20104;-64
2023/09/05 14:38:25;;;;;;;1.97;1.50;;;;;;;;;;5071522;28;20024;-64
2023/09/05 14:40:53;;;;;;;3.60;2.40;;;;;;;;;;5072066;28;20491;-64
2023/09/05 14:43:21;;;;;;;3.20;2.13;;;;;;;;;;5072426;28;20027;-64
2023/09/05 14:45:48;;;;;;;2.53;1.80;;;;;;;;;;5072386;28;20086;-64